Terminal Aerodrome Forecast
Issued by NWS

Home | Current Version | Previous Version | Text Only | Print | Product List | Glossary On
Versions: 1 2 3 4 5 6 7 8 9 10 11 12 13 14 15 16 17 18 19 20 21 22 23 24 25 26 27 28 29 30 31
000
FTUS46 KMFR 051131
TAFOTH
TAF
KOTH 051131Z 0512/0612 VRB02KT P6SM FEW020
     FM051300 31004KT 5SM BR BKN020
     FM051600 35010KT P6SM SKC
     FM052000 36015G23KT P6SM SKC
     FM060400 36008KT P6SM FEW020=

USA.gov is the U.S. government's official web portal to all federal, state and local government web resources and services.